Valley City, ND

5:36 PM CST on February 09, 2016 (GMT -0600)
Valley City

Weather History for KBAC - May, 2014

Change the Weather History Date:

Friday, May 2, 2014

  Actual Average (KJMS) Record (KJMS)
Temperature  
Mean Temperature 52 °F 50 °F  
Max Temperature 62 °F 63 °F 94 °F (1955)
Min Temperature 41 °F 37 °F 11 °F (1907)
Degree Days  
Heating Degree Days 14 15  
Month to date heating degree days 30  
Since 1 July heating degree days 8624  
Cooling Degree Days 0 0  
Month to date cooling degree days 0  
Year to date cooling degree days 2  
Growing Degree Days 2 (Base 50)    
Moisture  
Dew Point 35 °F    
Average Humidity 56    
Maximum Humidity 100    
Minimum Humidity 27    
Precipitation  
Precipitation 0.00 in 0.07 in 1.24 in (1950)
Month to date precipitation 0.14  
Year to date precipitation 3.03  
Sea Level Pressure  
Sea Level Pressure 29.71 in    
Wind  
Wind Speed 17 mph (NW)    
Max Wind Speed 30 mph    
Max Gust Speed 40 mph    
Visibility 10 miles    
Events Rain    
T = Trace of Precipitation, MM = Missing Value Source: NWS Daily Summary

Daily Weather History Graph

Daily Weather History Graph

Search for Another Location

Airport or City:

Trip Planner

Search our weather history database for the weather conditions in past years. The results will help you decide how hot, cold, wet, or windy it might be!

Date:

Astronomy

May. 02, 2014 Rise Set
Actual Time 6:15 AM CDT 8:43 PM CDT
Civil Twilight 5:41 AM CDT 9:18 PM CDT
Nautical Twilight 4:58 AM CDT 10:00 PM CDT
Astronomical Twilight 4:09 AM CDT 10:50 PM CDT
Moon 8:49 AM CDT (5/2) No Moon Set
Length of Visible Light 15h 36m
Length of Day
14h 28m
Waxing Crescent, 12% of the Moon is Illuminated
May 2
Waxing Crescent
May 6
First Quarter
May 14
Full
May 21
Last Quarter
May 28
New

Hourly Weather History & Observations

Time (CDT) Temp. Windchill Dew Point Humidity Pressure Visibility Wind Dir Wind Speed Gust Speed Precip Events Conditions
12:15 AM 41.0 °F 36.4 °F 35.6 °F 81% 29.79 in 10.0 mi South 6.9 mph - N/A   Overcast
12:35 AM 41.0 °F 35.2 °F 37.4 °F 87% 29.77 in 10.0 mi SSW 9.2 mph - N/A   Overcast
12:55 AM 44.6 °F 38.8 °F 35.6 °F 71% 29.77 in 10.0 mi SW 11.5 mph - N/A   Overcast
1:15 AM 44.6 °F 39.2 °F 35.6 °F 71% 29.75 in 10.0 mi SSW 10.4 mph - N/A   Overcast
1:35 AM 46.4 °F 41.9 °F 35.6 °F 66% 29.74 in 10.0 mi SSW 9.2 mph - N/A   Overcast
1:55 AM 44.6 °F 38.4 °F 35.6 °F 71% 29.73 in 10.0 mi SW 12.7 mph - N/A   Overcast
2:15 AM 46.4 °F 41.5 °F 35.6 °F 66% 29.72 in 10.0 mi SW 10.4 mph - N/A   Overcast
2:35 AM 44.6 °F 38.4 °F 37.4 °F 76% 29.70 in 10.0 mi SSW 12.7 mph - N/A   Mostly Cloudy
2:55 AM 46.4 °F 39.8 °F 35.6 °F 66% 29.67 in 10.0 mi SW 16.1 mph - N/A   Overcast
3:15 AM 46.4 °F 39.2 °F 35.6 °F 66% 29.65 in 10.0 mi SW 18.4 mph - N/A   Overcast
3:35 AM 46.4 °F 40.1 °F 35.6 °F 66% 29.64 in 10.0 mi SW 15.0 mph - N/A   Overcast
3:55 AM 46.4 °F 39.0 °F 33.8 °F 62% 29.63 in 10.0 mi SW 19.6 mph 23.0 mph N/A Rain Light Rain
4:15 AM 48.2 °F - 32.0 °F 54% 29.62 in 10.0 mi WSW 18.4 mph 24.2 mph N/A   Overcast
4:35 AM 48.2 °F - 33.8 °F 58% 29.61 in 10.0 mi WSW 20.7 mph 26.5 mph N/A   Overcast
4:55 AM 46.4 °F 39.0 °F 35.6 °F 66% 29.61 in 10.0 mi West 19.6 mph 25.3 mph N/A   Overcast
5:15 AM 46.4 °F 38.7 °F 39.2 °F 76% 29.62 in 10.0 mi NW 20.7 mph 31.1 mph N/A   Partly Cloudy
5:35 AM 46.4 °F 38.5 °F 41.0 °F 81% 29.63 in 10.0 mi NW 21.9 mph 28.8 mph N/A   Clear
5:55 AM 46.4 °F 38.3 °F 44.6 °F 93% 29.63 in 10.0 mi NW 23.0 mph 29.9 mph N/A   Clear
6:15 AM 44.6 °F 36.6 °F 44.6 °F 100% 29.64 in 10.0 mi NNW 19.6 mph 31.1 mph N/A   Clear
6:35 AM 44.6 °F 35.9 °F 44.6 °F 100% 29.65 in 10.0 mi NNW 23.0 mph 29.9 mph N/A   Partly Cloudy
6:55 AM 46.4 °F 38.7 °F 46.4 °F 100% 29.66 in 10.0 mi NNW 20.7 mph 31.1 mph N/A   Mostly Cloudy
7:15 AM 46.4 °F 38.7 °F 44.6 °F 93% 29.67 in 10.0 mi NW 20.7 mph 31.1 mph N/A   Overcast
7:35 AM 46.4 °F 37.7 °F 39.2 °F 76% 29.67 in 10.0 mi NNW 26.5 mph 39.1 mph N/A   Mostly Cloudy
7:55 AM 46.4 °F 37.4 °F 39.2 °F 76% 29.68 in 10.0 mi NNW 28.8 mph 40.3 mph N/A   Scattered Clouds
8:15 AM 46.4 °F 37.2 °F 39.2 °F 76% 29.69 in 10.0 mi NNW 29.9 mph 38.0 mph N/A   Partly Cloudy
8:35 AM 46.4 °F 37.4 °F 39.2 °F 76% 29.70 in 10.0 mi NNW 28.8 mph 35.7 mph N/A   Partly Cloudy
8:55 AM 48.2 °F - 39.2 °F 71% 29.70 in 10.0 mi NNW 28.8 mph 35.7 mph N/A   Clear
9:15 AM 48.2 °F - 39.2 °F 71% 29.71 in 10.0 mi NNW 27.6 mph 35.7 mph N/A   Clear
9:35 AM 50.0 °F - 39.2 °F 66% 29.71 in 10.0 mi NNW 29.9 mph 36.8 mph N/A   Clear
9:55 AM 51.8 °F - 37.4 °F 58% 29.71 in 10.0 mi NNW 29.9 mph 38.0 mph N/A   Clear
10:15 AM 51.8 °F - 37.4 °F 58% 29.71 in 10.0 mi NNW 25.3 mph 40.3 mph N/A   Clear
10:35 AM 51.8 °F - 37.4 °F 58% 29.71 in 10.0 mi NNW 26.5 mph 33.4 mph N/A   Clear
10:55 AM 53.6 °F - 37.4 °F 54% 29.72 in 10.0 mi NNW 24.2 mph 32.2 mph N/A   Clear
11:15 AM 55.4 °F - 33.8 °F 44% 29.72 in 10.0 mi North 25.3 mph 34.5 mph N/A   Clear
11:35 AM 55.4 °F - 33.8 °F 44% 29.72 in 10.0 mi NW 24.2 mph 34.5 mph N/A   Clear
11:55 AM 55.4 °F - 33.8 °F 44% 29.72 in 10.0 mi NNW 25.3 mph 36.8 mph N/A   Scattered Clouds
12:15 PM 57.2 °F - 32.0 °F 38% 29.72 in 10.0 mi NNW 21.9 mph 34.5 mph N/A   Scattered Clouds
12:35 PM 57.2 °F - 33.8 °F 41% 29.73 in 10.0 mi NNW 26.5 mph 34.5 mph N/A   Partly Cloudy
12:55 PM 57.2 °F - 32.0 °F 38% 29.72 in 10.0 mi NNW 24.2 mph 35.7 mph N/A   Partly Cloudy
1:15 PM 59.0 °F - 32.0 °F 36% 29.72 in 10.0 mi NW 24.2 mph 32.2 mph N/A   Clear
1:35 PM 59.0 °F - 32.0 °F 36% 29.71 in 10.0 mi NNW 23.0 mph 31.1 mph N/A   Clear
1:55 PM 57.2 °F - 32.0 °F 38% 29.72 in 10.0 mi NNW 19.6 mph 31.1 mph N/A   Clear
2:15 PM 59.0 °F - 32.0 °F 36% 29.72 in 10.0 mi NNW 26.5 mph 35.7 mph N/A   Partly Cloudy
2:35 PM 59.0 °F - 32.0 °F 36% 29.72 in 10.0 mi NW 21.9 mph 31.1 mph N/A   Scattered Clouds
2:55 PM 59.0 °F - 32.0 °F 36% 29.72 in 10.0 mi NNW 20.7 mph 34.5 mph N/A   Scattered Clouds
3:15 PM 60.8 °F - 30.2 °F 31% 29.72 in 10.0 mi NNW 24.2 mph 34.5 mph N/A   Scattered Clouds
3:35 PM 62.6 °F - 30.2 °F 30% 29.72 in 10.0 mi NW 23.0 mph 33.4 mph N/A   Partly Cloudy
3:55 PM 60.8 °F - 28.4 °F 29% 29.72 in 10.0 mi NNW 21.9 mph 34.5 mph N/A   Partly Cloudy
4:15 PM 62.6 °F - 28.4 °F 27% 29.72 in 10.0 mi NNW 23.0 mph 32.2 mph N/A   Partly Cloudy
4:35 PM 62.6 °F - 28.4 °F 27% 29.73 in 10.0 mi NNW 26.5 mph 32.2 mph N/A   Scattered Clouds
4:55 PM 60.8 °F - 28.4 °F 29% 29.73 in 10.0 mi NNW 24.2 mph 35.7 mph N/A   Scattered Clouds
5:15 PM 59.0 °F - 26.6 °F 29% 29.72 in 10.0 mi NNW 24.2 mph 32.2 mph N/A   Partly Cloudy
5:35 PM 59.0 °F - 26.6 °F 29% 29.73 in 10.0 mi NNW 19.6 mph 32.2 mph N/A   Clear
5:55 PM 59.0 °F - 28.4 °F 31% 29.73 in 10.0 mi North 23.0 mph 29.9 mph N/A   Clear
6:15 PM 59.0 °F - 28.4 °F 31% 29.74 in 10.0 mi North 17.3 mph 29.9 mph N/A   Partly Cloudy
6:35 PM 57.2 °F - 28.4 °F 33% 29.74 in 10.0 mi NNW 21.9 mph 26.5 mph N/A   Scattered Clouds
6:55 PM 57.2 °F - 28.4 °F 33% 29.74 in 10.0 mi NNW 19.6 mph 24.2 mph N/A   Mostly Cloudy
7:15 PM 57.2 °F - 28.4 °F 33% 29.74 in 10.0 mi NNW 18.4 mph 24.2 mph N/A   Mostly Cloudy
7:35 PM 57.2 °F - 28.4 °F 33% 29.74 in 10.0 mi NNW 11.5 mph - N/A   Partly Cloudy
7:55 PM 53.6 °F - 28.4 °F 38% 29.75 in 10.0 mi NNW 13.8 mph - N/A   Clear
8:15 PM 53.6 °F - 30.2 °F 41% 29.75 in 10.0 mi NW 9.2 mph - N/A   Partly Cloudy
8:35 PM 50.0 °F - 30.2 °F 47% 29.75 in 10.0 mi NW 8.1 mph - N/A   Partly Cloudy
8:55 PM 48.2 °F - 32.0 °F 54% 29.75 in 10.0 mi WNW 8.1 mph - N/A   Clear
9:15 PM 46.4 °F 42.4 °F 32.0 °F 57% 29.75 in 10.0 mi WNW 8.1 mph - N/A   Clear
9:35 PM 46.4 °F 41.1 °F 35.6 °F 66% 29.76 in 10.0 mi West 11.5 mph - N/A   Mostly Cloudy
9:55 PM 46.4 °F 42.4 °F 33.8 °F 62% 29.76 in 10.0 mi West 8.1 mph - N/A   Mostly Cloudy
10:15 PM 48.2 °F - 35.6 °F 62% 29.78 in 10.0 mi North 17.3 mph 24.2 mph N/A   Overcast
10:35 PM 50.0 °F - 33.8 °F 54% 29.78 in 10.0 mi NNW 11.5 mph - N/A   Overcast
10:55 PM 48.2 °F - 35.6 °F 62% 29.78 in 10.0 mi North 10.4 mph - N/A   Overcast
11:15 PM 48.2 °F - 35.6 °F 62% 29.80 in 10.0 mi North 11.5 mph - N/A   Overcast
11:35 PM 48.2 °F - 37.4 °F 66% 29.80 in 10.0 mi North 10.4 mph - N/A Rain Light Rain
11:55 PM 46.4 °F 41.9 °F 39.2 °F 76% 29.80 in 10.0 mi North 9.2 mph - N/A Rain Light Rain